Time;durP1;ratioP1;P1;durP2;ratioP2;P2;SDS_P1;SDS_P2;PMS_P1;PMS_P2;Temp;Humidity;BMP_temperature;BMP_pressure;BME280_temperature;BME280_humidity;BME280_pressure;Samples;Min_cycle;Max_cycle;Signal;HPM_P1;HPM_P2
2023/10/18 00:54:14;;;;;;;14.38;11.68;;;;;;;6.67;68.57;96336.19;5583989;23;20050;-80
2023/10/18 00:56:44;;;;;;;17.65;11.25;;;;;;;6.64;68.31;96341.72;4994499;28;20140;-80
2023/10/18 00:59:21;;;;;;;16.50;12.65;;;;;;;6.59;68.47;96335.25;4994544;28;20118;-80
2023/10/18 01:01:55;;;;;;;14.43;11.75;;;;;;;6.57;68.81;96336.38;4994536;28;20055;-81
2023/10/18 01:04:28;;;;;;;13.43;11.32;;;;;;;6.57;69.04;96338.97;4996964;28;20488;-81
2023/10/18 01:06:57;;;;;;;16.65;11.40;;;;;;;6.56;68.58;96332.97;4995110;28;20088;-80
2023/10/18 01:09:27;;;;;;;16.13;13.07;;;;;;;6.53;68.72;96325.50;4994778;28;20054;-81
2023/10/18 01:11:55;;;;;;;15.75;11.25;;;;;;;6.51;69.02;96332.63;4994201;28;20488;-80
2023/10/18 01:14:25;;;;;;;14.85;12.25;;;;;;;6.49;68.90;96324.22;4994522;28;20089;-80
2023/10/18 01:16:54;;;;;;;15.18;12.32;;;;;;;6.49;69.27;96315.63;4994245;28;20518;-80
2023/10/18 01:19:22;;;;;;;17.08;12.50;;;;;;;6.48;69.27;96322.63;4994379;28;20050;-81
2023/10/18 01:21:51;;;;;;;16.38;12.88;;;;;;;6.47;69.38;96326.19;4994360;28;20137;-80
2023/10/18 01:24:19;;;;;;;20.92;13.20;;;;;;;6.47;69.41;96326.19;4994388;28;20057;-80
2023/10/18 01:26:48;;;;;;;15.27;12.38;;;;;;;6.47;69.15;96323.59;4996431;28;20077;-80
2023/10/18 01:29:16;;;;;;;16.50;12.23;;;;;;;6.46;68.66;96324.56;4994531;28;20081;-80
2023/10/18 01:31:44;;;;;;;18.80;12.60;;;;;;;6.45;69.08;96319.53;4993964;28;20501;-80
2023/10/18 01:34:14;;;;;;;19.70;14.00;;;;;;;6.45;68.92;96314.34;4994016;28;20057;-81
2023/10/18 01:36:42;;;;;;;18.58;13.05;;;;;;;6.44;68.96;96305.78;4993663;28;20051;-80
2023/10/18 01:39:18;;;;;;;19.90;12.70;;;;;;;6.44;69.00;96305.78;4993692;28;20391;-80
2023/10/18 01:41:49;;;;;;;16.85;12.80;;;;;;;6.40;68.81;96299.28;4994037;28;20065;-80
2023/10/18 01:44:27;;;;;;;14.93;12.60;;;;;;;6.41;69.37;96295.75;4994245;28;20177;-81
2023/10/18 01:46:59;;;;;;;22.30;13.05;;;;;;;6.41;69.24;96295.75;4993944;28;20424;-79
2023/10/18 01:49:27;;;;;;;16.23;12.75;;;;;;;6.42;69.67;96294.75;4993460;28;20054;-80
2023/10/18 01:51:57;;;;;;;16.35;12.73;;;;;;;6.42;69.80;96286.97;4993516;28;20061;-80
2023/10/18 01:54:26;;;;;;;17.95;13.23;;;;;;;6.39;69.24;96287.31;4993114;28;20042;-80
2023/10/18 01:56:57;;;;;;;15.40;12.85;;;;;;;6.36;69.38;96288.47;4994732;28;20141;-80
2023/10/18 01:59:27;;;;;;;17.45;13.75;;;;;;;6.35;68.97;96284.25;4994074;28;20622;-81
2023/10/18 02:01:57;;;;;;;16.90;13.55;;;;;;;6.33;68.86;96270.63;4994280;28;20057;-80
2023/10/18 02:04:26;;;;;;;15.48;12.57;;;;;;;6.32;69.04;96276.81;4994152;28;20533;-79
2023/10/18 02:06:59;;;;;;;16.37;13.00;;;;;;;6.30;68.68;96275.34;4994223;28;20145;-81
2023/10/18 02:09:36;;;;;;;17.77;13.27;;;;;;;6.26;69.00;96277.44;4993535;28;20594;-80
2023/10/18 02:12:06;;;;;;;19.20;13.10;;;;;;;6.26;69.52;96280.03;4994029;28;20069;-80
2023/10/18 02:14:34;;;;;;;18.88;13.13;;;;;;;6.28;69.51;96272.13;4993715;28;20551;-80
2023/10/18 02:17:02;;;;;;;16.85;13.45;;;;;;;6.27;69.18;96275.66;4993583;28;20053;-80
2023/10/18 02:19:31;;;;;;;16.70;12.93;;;;;;;6.26;69.17;96274.84;4993293;28;20051;-80
2023/10/18 02:21:59;;;;;;;23.02;14.50;;;;;;;6.27;69.17;96267.88;4993514;28;20466;-80
2023/10/18 02:24:27;;;;;;;16.75;13.25;;;;;;;6.26;69.05;96266.28;4994458;28;20137;-80
2023/10/18 02:26:55;;;;;;;19.13;13.75;;;;;;;6.25;69.34;96254.28;4997795;28;20133;-81
2023/10/18 02:29:24;;;;;;;17.30;14.30;;;;;;;6.25;70.36;96264.66;4998455;28;20050;-81
2023/10/18 02:31:56;;;;;;;17.73;14.10;;;;;;;6.23;69.24;96256.22;4999433;28;20078;-80
2023/10/18 02:34:25;;;;;;;20.20;13.10;;;;;;;6.21;69.70;96263.34;4997642;28;20058;-80
2023/10/18 02:36:58;;;;;;;15.82;13.07;;;;;;;6.18;69.32;96269.66;4997269;28;20050;-81
2023/10/18 02:39:27;;;;;;;19.70;14.07;;;;;;;6.13;69.46;96270.16;4997042;28;20510;-81
2023/10/18 02:41:57;;;;;;;19.17;14.20;;;;;;;6.11;69.37;96264.34;4997354;28;20078;-80
2023/10/18 02:44:28;;;;;;;18.55;13.65;;;;;;;6.11;69.35;96266.91;4997769;28;20077;-80
2023/10/18 02:47:07;;;;;;;17.45;14.55;;;;;;;6.11;69.17;96269.50;5011486;28;20061;-80
2023/10/18 02:49:34;;;;;;;16.90;13.50;;;;;;;6.13;69.53;96256.41;5010713;28;20148;-80
2023/10/18 02:52:03;;;;;;;20.33;14.18;;;;;;;6.14;69.25;96261.44;5006180;28;20054;-80
2023/10/18 02:54:32;;;;;;;19.73;14.85;;;;;;;6.13;69.26;96261.59;4998214;28;20059;-80
2023/10/18 02:57:01;;;;;;;17.38;13.90;;;;;;;6.13;69.27;96262.41;4997864;28;20499;-80
2023/10/18 02:59:31;;;;;;;18.90;13.68;;;;;;;6.15;70.15;96259.66;4998231;28;20053;-80
2023/10/18 03:02:01;;;;;;;22.63;15.18;;;;;;;6.16;69.59;96269.03;4998626;28;20074;-81
2023/10/18 03:04:34;;;;;;;19.08;14.90;;;;;;;6.14;69.28;96258.84;4997461;28;20050;-80
2023/10/18 03:07:02;;;;;;;;;;;;;;;6.15;69.40;96268.22;4998027;28;20046;-81
2023/10/18 03:09:39;;;;;;;18.58;13.95;;;;;;;6.12;69.10;96265.97;4997076;28;19921;-80
2023/10/18 03:12:13;;;;;;;21.00;14.90;;;;;;;6.09;68.98;96258.50;5018785;28;20098;-79
2023/10/18 03:14:54;;;;;;;18.77;14.32;;;;;;;6.07;69.11;96252.69;5018946;28;20081;-80
2023/10/18 03:17:24;;;;;;;18.38;14.30;;;;;;;6.08;69.01;96253.47;4999911;28;20042;-79
2023/10/18 03:19:55;;;;;;;20.25;15.30;;;;;;;6.07;69.21;96246.69;4997256;28;20054;-80
2023/10/18 03:22:26;;;;;;;18.27;14.82;;;;;;;6.07;69.17;96247.50;4996829;28;20128;-81
2023/10/18 03:24:54;;;;;;;17.92;14.93;;;;;;;6.06;69.17;96240.72;4996638;28;20058;-80
2023/10/18 03:27:23;;;;;;;20.15;14.70;;;;;;;6.06;69.35;96248.47;4997018;28;20065;-79
2023/10/18 03:29:57;;;;;;;22.77;15.63;;;;;;;6.05;69.53;96249.44;4996659;28;20570;-81
2023/10/18 03:32:25;;;;;;;22.27;15.13;;;;;;;6.03;69.40;96248.78;4997048;28;20062;-80
2023/10/18 03:34:54;;;;;;;20.55;16.00;;;;;;;6.02;69.24;96242.00;4997373;28;20050;-81
2023/10/18 03:37:21;;;;;;;21.33;16.05;;;;;;;6.00;69.69;96241.34;4998377;28;20078;-81
2023/10/18 03:39:52;;;;;;;22.60;15.30;;;;;;;6.00;69.27;96233.59;4997023;28;20441;-80
2023/10/18 03:42:31;;;;;;;19.75;15.05;;;;;;;5.95;69.37;96233.28;4997117;28;20053;-80
2023/10/18 03:45:04;;;;;;;22.45;15.45;;;;;;;5.93;69.72;96227.41;4996429;28;20056;-80
2023/10/18 03:47:36;;;;;;;21.42;15.65;;;;;;;5.91;69.75;96224.97;4996391;28;20050;-80
2023/10/18 03:50:08;;;;;;;21.33;16.13;;;;;;;5.91;69.98;96214.63;4996668;28;20057;-81
2023/10/18 03:52:37;;;;;;;20.73;15.80;;;;;;;5.92;69.92;96218.81;4996206;28;20053;-81
2023/10/18 03:55:12;;;;;;;20.73;16.02;;;;;;;5.93;70.13;96219.66;4996840;28;20060;-80
2023/10/18 03:57:41;;;;;;;22.60;16.90;;;;;;;5.93;70.12;96209.28;4996336;28;21065;-80
2023/10/18 04:00:37;;;;;;;23.27;16.27;;;;;;;5.91;69.69;96204.28;4996622;28;20061;-80
2023/10/18 04:03:09;;;;;;;20.95;16.00;;;;;;;5.93;69.93;96204.13;4996549;28;20113;-80
2023/10/18 04:05:42;;;;;;;21.42;16.70;;;;;;;5.94;70.05;96205.72;4995763;28;20046;-80
2023/10/18 04:08:13;;;;;;;22.45;16.73;;;;;;;5.92;70.25;96197.31;4996396;28;20101;-80
2023/10/18 04:10:41;;;;;;;21.63;16.20;;;;;;;5.92;69.62;96195.53;4996604;28;20391;-80
2023/10/18 04:13:12;;;;;;;21.92;16.30;;;;;;;5.91;70.05;96190.53;4996263;28;20089;-81
2023/10/18 04:15:45;;;;;;;21.33;16.42;;;;;;;5.90;70.24;96197.50;4995936;28;20046;-80
2023/10/18 04:18:15;;;;;;;26.08;16.48;;;;;;;5.90;69.87;96196.66;4996288;28;20046;-80
2023/10/18 04:20:46;;;;;;;23.65;16.25;;;;;;;5.89;69.91;96184.69;4996496;28;20402;-80
2023/10/18 04:23:18;;;;;;;19.40;15.70;;;;;;;5.90;70.03;96178.53;4996891;28;20047;-81
2023/10/18 04:25:57;;;;;;;20.63;16.85;;;;;;;5.90;70.05;96173.34;4997141;28;20069;-80
2023/10/18 04:28:25;;;;;;;21.30;16.20;;;;;;;5.88;70.23;96170.97;4996739;28;20380;-81
2023/10/18 04:30:59;;;;;;;22.23;16.63;;;;;;;5.87;70.07;96168.53;5003161;28;20093;-79
2023/10/18 04:33:28;;;;;;;23.48;17.63;;;;;;;5.86;70.31;96169.47;5011677;28;20081;-79
2023/10/18 04:35:58;;;;;;;24.17;17.45;;;;;;;5.86;70.85;96164.31;5012095;28;20108;-80
2023/10/18 04:38:30;;;;;;;22.70;16.73;;;;;;;5.87;71.01;96163.34;5012939;28;20070;-78
2023/10/18 04:41:07;;;;;;;23.00;17.23;;;;;;;5.87;70.79;96171.09;5011845;28;20082;-81
2023/10/18 04:43:34;;;;;;;24.88;16.58;;;;;;;5.85;70.43;96165.28;5000353;28;20054;-80
2023/10/18 04:46:14;;;;;;;22.15;17.05;;;;;;;5.84;70.32;96163.66;4996188;28;20052;-81
2023/10/18 04:51:28;;;;;;;23.35;16.90;;;;;;;5.80;70.81;96163.19;5005797;28;20110;-80
2023/10/18 04:53:57;;;;;;;25.58;17.52;;;;;;;5.79;71.03;96161.56;5007211;28;20133;-80
2023/10/18 04:56:32;;;;;;;21.50;15.77;;;;;;;5.78;71.05;96165.13;4999627;28;20073;-80
2023/10/18 04:59:06;;;;;;;24.23;18.33;;;;;;;5.77;70.58;96174.69;4999287;28;20074;-80
2023/10/18 05:01:36;;;;;;;25.52;16.90;;;;;;;5.77;70.57;96173.84;4999670;28;20097;-80
2023/10/18 05:06:52;;;;;;;20.63;16.42;;;;;;;5.76;70.63;96167.06;5015407;28;20045;-80
2023/10/18 05:09:29;;;;;;;22.73;16.63;;;;;;;5.75;70.63;96166.25;4996652;28;20050;-79
2023/10/18 05:11:59;;;;;;;22.85;18.42;;;;;;;5.74;71.04;96164.63;4998184;28;20042;-80
2023/10/18 05:14:43;;;;;;;23.83;17.27;;;;;;;5.71;71.05;96154.63;4995730;28;20116;-79
2023/10/18 05:17:21;;;;;;;21.50;15.88;;;;;;;5.71;70.94;96154.63;4990174;28;20046;-79
2023/10/18 05:19:50;;;;;;;25.45;17.85;;;;;;;5.71;71.42;96148.63;4993710;28;20049;-79
2023/10/18 05:22:20;;;;;;;28.92;19.35;;;;;;;5.73;71.34;96139.75;4994271;28;20057;-79
2023/10/18 05:24:55;;;;;;;26.48;19.05;;;;;;;5.73;71.43;96133.75;4994016;28;20050;-77
2023/10/18 05:27:25;;;;;;;25.02;18.00;;;;;;;5.74;71.55;96131.00;4994132;28;20046;-80
2023/10/18 05:29:54;;;;;;;23.10;18.20;;;;;;;5.78;71.81;96136.66;4993683;28;20065;-80
2023/10/18 05:32:49;;;;;;;24.25;17.20;;;;;;;5.80;71.69;96136.50;4993402;28;20093;-79
2023/10/18 05:35:21;;;;;;;23.38;17.00;;;;;;;5.81;71.47;96135.53;4994324;28;20053;-80
2023/10/18 05:37:59;;;;;;;23.80;17.40;;;;;;;5.81;71.48;96141.50;4995656;28;20070;-80
2023/10/18 05:43:22;;;;;;;23.80;17.55;;;;;;;5.82;71.54;96125.00;4995045;28;20054;-80
2023/10/18 05:45:55;;;;;;;21.33;17.23;;;;;;;5.87;71.77;96119.34;4995228;28;20054;-80
2023/10/18 05:48:25;;;;;;;20.83;15.50;;;;;;;5.90;71.97;96126.75;4994587;28;20089;-80
2023/10/18 05:51:01;;;;;;;22.27;16.65;;;;;;;5.95;72.45;96120.16;4995240;28;20552;-80
2023/10/18 05:53:30;;;;;;;28.13;18.52;;;;;;;6.04;71.72;96126.13;4978674;28;20050;-77
2023/10/18 05:55:58;;;;;;;25.15;18.23;;;;;;;6.07;71.70;96112.06;4981118;28;20116;-78
2023/10/18 05:58:30;;;;;;;21.92;17.15;;;;;;;6.10;71.77;96122.91;4993615;28;20596;-79
2023/10/18 06:01:02;;;;;;;21.95;16.77;;;;;;;6.16;71.69;96136.94;4993778;28;20481;-78
2023/10/18 06:03:39;;;;;;;22.77;16.77;;;;;;;6.18;70.86;96129.81;4993825;28;20518;-78
2023/10/18 06:06:07;;;;;;;25.40;17.17;;;;;;;6.16;70.89;96126.59;4993338;28;20101;-78
2023/10/18 06:08:35;;;;;;;20.85;16.27;;;;;;;6.15;71.05;96130.97;4993956;28;20410;-78
2023/10/18 06:11:06;;;;;;;22.20;16.98;;;;;;;6.14;70.97;96131.97;4994221;28;20521;-80
2023/10/18 06:13:35;;;;;;;20.17;15.65;;;;;;;6.10;70.75;96119.47;4994856;28;20050;-80
2023/10/18 06:16:18;;;;;;;24.92;18.17;;;;;;;6.08;70.76;96122.25;4993552;28;20109;-78
2023/10/18 06:18:50;;;;;;;24.65;18.13;;;;;;;6.09;71.38;96120.47;4986537;28;20506;-77
2023/10/18 06:21:19;;;;;;;19.05;15.20;;;;;;;6.09;71.03;96110.91;4991949;28;20062;-77
2023/10/18 06:23:55;;;;;;;21.38;15.75;;;;;;;6.12;70.86;96107.16;4993030;28;20109;-77
2023/10/18 06:26:29;;;;;;;20.70;16.48;;;;;;;6.12;70.51;96108.00;4997914;28;20034;-77
2023/10/18 06:29:01;;;;;;;22.02;16.63;;;;;;;6.14;70.44;96120.75;5014485;28;20053;-78
2023/10/18 06:31:29;;;;;;;20.73;16.20;;;;;;;6.14;70.42;96113.81;5012059;28;20042;-78
2023/10/18 06:33:59;;;;;;;18.90;15.50;;;;;;;6.18;70.01;96124.66;4994411;28;20206;-78
2023/10/18 06:36:32;;;;;;;21.00;16.27;;;;;;;6.23;70.28;96127.56;4994342;28;20252;-78
2023/10/18 06:38:59;;;;;;;23.08;16.52;;;;;;;6.26;70.14;96126.41;4993876;28;20469;-78
2023/10/18 06:41:31;;;;;;;20.17;15.65;;;;;;;6.29;70.14;96132.06;4993386;28;20104;-78
2023/10/18 06:43:59;;;;;;;20.52;16.23;;;;;;;6.32;69.58;96125.72;4993291;28;20061;-77
2023/10/18 06:46:27;;;;;;;20.67;15.25;;;;;;;6.35;69.33;96139.16;4993424;28;20407;-78
2023/10/18 06:48:57;;;;;;;22.45;16.08;;;;;;;6.36;69.69;96130.44;4993210;28;20101;-78
2023/10/18 06:51:42;;;;;;;22.00;15.85;;;;;;;6.43;69.01;96132.34;5008606;28;20057;-77
2023/10/18 06:54:14;;;;;;;18.17;15.10;;;;;;;6.46;69.31;96130.22;5007551;28;20489;-77
2023/10/18 06:56:46;;;;;;;20.50;15.55;;;;;;;6.47;69.27;96131.88;5000664;28;20129;-77
2023/10/18 06:59:14;;;;;;;21.88;15.88;;;;;;;6.51;68.92;96121.94;4993439;28;20108;-78
2023/10/18 07:01:54;;;;;;;21.63;16.02;;;;;;;6.53;69.04;96117.41;4993455;28;20088;-79
2023/10/18 07:04:27;;;;;;;22.70;15.73;;;;;;;6.56;68.79;96123.06;4992987;28;20202;-78
2023/10/18 07:06:57;;;;;;;21.55;15.60;;;;;;;6.62;68.59;96105.22;5021895;23;20105;-79
2023/10/18 07:09:31;;;;;;;19.83;15.43;;;;;;;6.66;68.42;96111.69;4990170;28;20085;-79
2023/10/18 07:12:03;;;;;;;20.67;15.10;;;;;;;6.69;68.44;96106.16;4999499;28;20050;-79
2023/10/18 07:14:31;;;;;;;22.48;14.57;;;;;;;6.75;68.06;96111.47;5001186;28;20050;-78
2023/10/18 07:17:03;;;;;;;17.95;14.55;;;;;;;6.84;67.76;96098.47;4997032;28;20077;-79
2023/10/18 07:19:33;;;;;;;20.23;15.50;;;;;;;6.88;67.55;96100.56;4989008;28;20141;-79
2023/10/18 07:22:06;;;;;;;17.35;14.70;;;;;;;6.91;67.69;96099.41;4992994;28;20046;-78
2023/10/18 07:24:36;;;;;;;18.15;14.45;;;;;;;6.96;67.41;96099.72;4993804;28;20041;-78
2023/10/18 07:27:04;;;;;;;16.48;14.00;;;;;;;7.02;67.33;96096.44;5014393;28;20065;-77
2023/10/18 07:29:36;;;;;;;19.17;14.93;;;;;;;7.11;67.12;96094.59;5009830;28;20050;-81
2023/10/18 07:32:06;;;;;;;21.48;14.57;;;;;;;7.19;67.11;96087.56;4996431;28;20076;-82
2023/10/18 07:34:36;;;;;;;16.80;13.93;;;;;;;7.27;67.00;96089.28;4983476;28;20059;-81
2023/10/18 07:37:19;;;;;;;15.40;13.05;;;;;;;7.35;66.43;96085.84;4980213;28;20078;-81
2023/10/18 07:39:49;;;;;;;16.38;12.30;;;;;;;7.46;66.17;96076.84;4987159;28;20073;-79
2023/10/18 07:42:19;;;;;;;17.98;13.35;;;;;;;7.55;65.81;96075.78;5009657;28;20089;-80
2023/10/18 07:44:52;;;;;;;16.83;13.32;;;;;;;7.65;66.33;96071.13;4982820;28;20312;-83
2023/10/18 07:47:24;;;;;;;15.98;12.38;;;;;;;7.77;65.53;96074.91;4992656;28;20090;-79
2023/10/18 07:49:55;;;;;;;16.02;12.48;;;;;;;7.89;65.22;96071.88;4998607;28;20046;-79
2023/10/18 07:52:24;;;;;;;16.40;12.88;;;;;;;8.01;65.38;96070.47;4993247;28;20070;-79
2023/10/18 07:54:52;;;;;;;16.63;12.75;;;;;;;8.11;64.73;96076.22;4976443;28;20053;-78
2023/10/18 07:57:29;;;;;;;16.05;13.25;;;;;;;8.19;63.94;96073.50;4977875;28;20055;-79
2023/10/18 08:00:21;;;;;;;17.88;12.90;;;;;;;8.30;63.98;96074.06;4977447;28;20055;-79
2023/10/18 08:02:43;;;;;;;18.13;12.68;;;;;;;8.41;63.79;96074.44;4978789;28;20054;-79
2023/10/18 08:05:12;;;;;;;19.70;13.10;;;;;;;8.54;63.49;96068.59;4978458;28;20057;-78
2023/10/18 08:07:48;;;;;;;18.00;14.18;;;;;;;8.74;62.99;96068.00;4995816;28;20046;-79
2023/10/18 08:10:19;;;;;;;17.45;13.82;;;;;;;9.02;62.53;96058.50;4996463;28;20467;-78
2023/10/18 08:12:49;;;;;;;17.25;13.20;;;;;;;9.43;61.51;96070.91;4995800;28;20050;-78
2023/10/18 08:15:17;;;;;;;15.10;12.48;;;;;;;9.80;60.53;96063.78;4981012;28;20575;-79
2023/10/18 08:17:46;;;;;;;16.30;12.82;;;;;;;10.11;59.24;96054.75;4969555;28;20046;-78
2023/10/18 08:23:14;;;;;;;12.98;11.60;;;;;;;10.65;57.67;96043.59;4995230;28;20150;-78
2023/10/18 08:25:48;;;;;;;15.00;11.45;;;;;;;10.86;57.25;96042.66;4995401;28;20576;-79
2023/10/18 08:28:16;;;;;;;16.15;11.32;;;;;;;10.96;57.22;96041.50;4979156;28;20053;-79
2023/10/18 08:31:03;;;;;;;11.57;10.38;;;;;;;11.07;56.81;96040.91;4979761;28;20047;-79
2023/10/18 08:33:31;;;;;;;13.00;10.18;;;;;;;11.34;56.49;96047.75;4985462;28;20081;-79
2023/10/18 08:36:06;;;;;;;13.25;10.63;;;;;;;11.75;56.02;96053.78;4980539;28;20133;-80
2023/10/18 08:38:36;;;;;;;13.18;11.23;;;;;;;12.15;54.30;96051.94;5014602;28;20042;-80
2023/10/18 08:41:13;;;;;;;12.68;10.90;;;;;;;12.26;53.40;96045.28;5006525;28;20128;-81
2023/10/18 08:43:53;;;;;;;13.27;10.32;;;;;;;12.33;52.66;96043.47;4992987;28;20082;-80
2023/10/18 08:46:26;;;;;;;10.18;9.10;;;;;;;12.75;52.19;96030.81;4988711;28;20109;-81
2023/10/18 08:48:59;;;;;;;14.88;9.48;;;;;;;13.35;50.90;96025.22;4998522;28;20461;-81
2023/10/18 08:51:28;;;;;;;;;;;;;;;13.81;50.09;96023.22;4997936;28;20074;-80
2023/10/18 08:54:01;;;;;;;9.25;8.00;;;;;;;14.12;48.77;96017.06;4987951;28;19922;-80
2023/10/18 08:56:33;;;;;;;9.40;8.38;;;;;;;14.07;49.19;96016.94;4988931;28;20090;-81
2023/10/18 08:59:11;;;;;;;10.50;8.63;;;;;;;14.00;49.19;96011.75;4987449;28;20073;-80
2023/10/18 09:02:02;;;;;;;10.50;8.82;;;;;;;14.00;49.66;96017.00;4993152;28;20054;-80
2023/10/18 09:04:31;;;;;;;10.13;8.85;;;;;;;13.75;49.97;96016.22;4978143;28;20055;-81
2023/10/18 09:07:03;;;;;;;12.25;9.57;;;;;;;13.37;50.54;96022.41;4989084;28;20516;-80
2023/10/18 09:09:35;;;;;;;11.95;9.65;;;;;;;12.96;50.89;96023.63;4994982;28;20060;-80
2023/10/18 09:12:14;;;;;;;12.10;9.43;;;;;;;12.54;51.65;96016.19;4996159;28;20054;-81
2023/10/18 09:14:41;;;;;;;12.35;10.15;;;;;;;12.15;52.65;96004.06;4996316;28;20077;-80
2023/10/18 09:17:10;;;;;;;11.10;9.63;;;;;;;11.84;53.63;96010.75;4982813;28;20186;-80
2023/10/18 09:19:38;;;;;;;11.68;9.32;;;;;;;11.65;54.23;96004.53;4982862;28;20410;-80
2023/10/18 09:22:07;;;;;;;13.05;10.40;;;;;;;11.59;54.41;96007.16;4994817;28;20478;-79
2023/10/18 09:24:43;;;;;;;12.32;9.90;;;;;;;11.58;54.62;95995.13;4995803;28;20054;-80
2023/10/18 09:27:12;;;;;;;12.18;9.30;;;;;;;11.90;54.41;95993.50;4982271;28;20066;-80
2023/10/18 09:29:40;;;;;;;12.75;9.45;;;;;;;12.63;52.95;95995.84;4976441;28;20085;-80
2023/10/18 09:32:21;;;;;;;12.18;9.82;;;;;;;13.46;51.23;96000.16;4976779;28;20050;-81
2023/10/18 09:34:55;;;;;;;9.93;8.93;;;;;;;14.68;48.54;95998.69;4959874;28;20078;-80
2023/10/18 09:37:29;;;;;;;10.20;8.70;;;;;;;15.79;45.70;95996.44;4972866;28;20050;-80
2023/10/18 09:39:58;;;;;;;10.02;8.02;;;;;;;16.77;44.32;95983.38;4967531;28;20057;-82
2023/10/18 09:42:25;;;;;;;9.93;8.85;;;;;;;17.69;42.38;95967.28;4975604;28;20053;-80
2023/10/18 09:44:56;;;;;;;9.13;8.18;;;;;;;18.46;40.82;95968.28;4974795;28;20129;-80
2023/10/18 09:47:24;;;;;;;9.90;8.15;;;;;;;19.17;39.49;95962.13;4982406;28;20562;-80
2023/10/18 09:49:55;;;;;;;8.95;7.43;;;;;;;19.69;37.40;95966.75;4976071;28;20089;-80
2023/10/18 09:52:25;;;;;;;8.38;7.57;;;;;;;19.82;37.38;95959.44;4975473;28;20071;-79
2023/10/18 09:55:00;;;;;;;9.65;7.95;;;;;;;19.79;37.71;95954.63;4978536;28;20153;-80
2023/10/18 09:57:40;;;;;;;8.95;8.05;;;;;;;19.86;37.27;95949.94;4985471;28;20078;-83
2023/10/18 10:00:11;;;;;;;10.45;7.93;;;;;;;19.92;37.27;95955.00;4984128;28;20132;-82
2023/10/18 10:02:40;;;;;;;10.63;8.20;;;;;;;19.64;37.33;95948.19;4999941;28;20081;-83
2023/10/18 10:05:24;;;;;;;8.73;7.47;;;;;;;19.46;37.94;95948.59;4978612;28;20053;-78
2023/10/18 10:07:55;;;;;;;9.93;7.55;;;;;;;19.33;37.76;95950.63;4976220;28;20053;-78
2023/10/18 10:21:29;;;;;;;6.32;5.75;;;;;;;20.69;35.31;95928.81;5526470;23;20077;-80
2023/10/18 10:24:06;;;;;;;9.05;6.55;;;;;;;21.06;34.79;95927.00;5000274;28;20065;-81
2023/10/18 10:29:35;;;;;;;6.45;5.60;;;;;;;23.25;32.81;95932.63;4965150;28;20078;-81
2023/10/18 10:32:18;;;;;;;6.60;5.90;;;;;;;24.72;29.60;95925.19;4978105;28;20069;-81
2023/10/18 10:50:34;;;;;;;5.55;4.95;;;;;;;23.96;28.94;95899.19;4995132;28;20054;-81
2023/10/18 11:01:06;;;;;;;4.97;4.50;;;;;;;23.40;30.13;95886.47;4990329;28;20470;-82
2023/10/18 11:03:52;;;;;;;6.90;5.18;;;;;;;23.60;29.59;95874.81;4983799;28;20058;-82
2023/10/18 11:06:43;;;;;;;6.68;5.40;;;;;;;23.67;29.91;95875.25;5011974;28;20050;-82
2023/10/18 11:09:16;;;;;;;6.82;5.07;;;;;;;23.76;29.96;95878.13;5006898;28;20047;-81
2023/10/18 11:11:46;;;;;;;5.68;4.85;;;;;;;23.94;30.09;95877.41;5008559;28;20137;-81
2023/10/18 11:14:18;;;;;;;5.85;5.25;;;;;;;24.26;29.68;95875.94;5007528;28;20046;-82
2023/10/18 11:16:53;;;;;;;6.40;5.75;;;;;;;24.51;28.92;95877.50;5005787;28;20054;-81
2023/10/18 11:19:28;;;;;;;5.38;4.88;;;;;;;24.59;28.93;95868.81;5003228;28;20414;-82
2023/10/18 11:22:00;;;;;;;6.68;5.20;;;;;;;24.36;30.00;95861.66;5006504;28;20096;-83
2023/10/18 11:24:39;;;;;;;5.93;5.00;;;;;;;23.85;30.33;95850.59;5005741;28;20055;-82
2023/10/18 11:27:09;;;;;;;5.50;4.55;;;;;;;23.16;30.65;95843.84;5006299;28;20060;-82
2023/10/18 11:29:42;;;;;;;6.82;4.97;;;;;;;22.70;31.41;95849.53;5006018;28;20050;-81
2023/10/18 11:32:17;;;;;;;6.22;5.30;;;;;;;22.59;31.39;95846.94;5003457;28;20054;-81
2023/10/18 11:34:46;;;;;;;5.35;4.60;;;;;;;22.41;31.62;95839.59;4995397;28;20634;-81
2023/10/18 11:37:34;;;;;;;6.40;4.97;;;;;;;22.43;31.87;95821.50;4999255;28;20050;-81
2023/10/18 11:40:14;;;;;;;6.05;5.40;;;;;;;23.15;31.20;95812.97;5000351;28;20057;-81
2023/10/18 11:43:06;;;;;;;7.07;5.57;;;;;;;24.55;29.91;95803.81;5002911;28;20474;-81
2023/10/18 11:45:39;;;;;;;4.88;4.47;;;;;;;26.07;28.24;95804.03;5004726;28;20146;-81
2023/10/18 11:48:11;;;;;;;5.85;5.25;;;;;;;27.34;25.76;95812.06;5004573;28;20626;-81
2023/10/18 11:50:41;;;;;;;6.55;4.90;;;;;;;27.30;25.94;95816.44;5003315;28;20050;-81
2023/10/18 11:53:12;;;;;;;4.60;4.18;;;;;;;27.11;26.03;95814.75;4998523;28;20058;-81
2023/10/18 11:55:56;;;;;;;6.00;4.72;;;;;;;26.79;26.73;95815.03;4997886;28;20051;-81
2023/10/18 11:58:25;;;;;;;5.78;4.65;;;;;;;26.80;25.98;95819.28;4998075;28;20129;-81
2023/10/18 12:00:58;;;;;;;4.88;4.38;;;;;;;26.90;26.40;95808.31;5003038;28;20105;-81
2023/10/18 12:03:34;;;;;;;5.93;4.32;;;;;;;27.23;25.35;95805.38;5006259;28;20055;-82
2023/10/18 12:06:11;;;;;;;6.15;3.88;;;;;;;27.05;25.38;95796.44;5017540;28;20050;-82
2023/10/18 12:08:47;;;;;;;6.25;4.15;;;;;;;26.22;25.64;95788.78;5018080;28;20069;-82
2023/10/18 12:11:17;;;;;;;4.80;4.22;;;;;;;25.21;26.69;95785.97;5018064;28;20057;-82
2023/10/18 12:13:45;;;;;;;4.13;3.75;;;;;;;24.08;28.05;95781.59;5013383;28;20050;-81
2023/10/18 12:16:14;;;;;;;4.97;4.38;;;;;;;23.17;29.55;95770.94;5011013;28;20125;-81
2023/10/18 12:18:44;;;;;;;5.70;4.40;;;;;;;22.47;30.54;95773.94;5011585;28;20415;-81
2023/10/18 12:21:12;;;;;;;4.72;4.22;;;;;;;21.92;31.63;95774.00;4999753;28;20494;-81
2023/10/18 12:23:41;;;;;;;7.25;4.57;;;;;;;21.46;31.87;95760.94;4997973;28;20050;-81
2023/10/18 12:26:11;;;;;;;5.70;4.70;;;;;;;21.03;32.76;95757.84;4997069;28;20054;-81
2023/10/18 12:28:41;;;;;;;5.32;4.65;;;;;;;20.70;33.09;95760.00;4978484;28;20055;-81
2023/10/18 12:31:12;;;;;;;7.65;4.22;;;;;;;20.23;33.41;95750.44;4992075;28;20054;-81
2023/10/18 12:33:42;;;;;;;5.00;4.00;;;;;;;19.82;34.50;95756.47;4995802;28;20046;-82
2023/10/18 12:36:22;;;;;;;4.95;4.25;;;;;;;19.57;35.67;95754.50;5003595;28;20111;-82
2023/10/18 12:38:55;;;;;;;6.38;4.90;;;;;;;19.28;35.58;95741.69;5018524;28;20430;-82
2023/10/18 12:41:31;;;;;;;;;;;;;;;19.14;36.23;95746.66;5018216;28;20065;-81
2023/10/18 12:44:00;;;;;;;5.88;5.28;;;;;;;18.82;36.34;95744.06;5011571;28;19933;-81
2023/10/18 12:46:37;;;;;;;6.50;4.35;;;;;;;18.61;37.02;95747.63;5006289;28;20057;-82
2023/10/18 12:49:32;;;;;;;5.35;4.85;;;;;;;18.41;38.05;95733.22;5005528;28;20128;-81
2023/10/18 12:52:40;;;;;;;5.03;4.53;;;;;;;18.30;37.92;95720.97;5005653;28;20133;-81
2023/10/18 12:55:04;;;;;;;5.72;4.55;;;;;;;18.20;37.96;95702.41;5006133;28;20090;-81
2023/10/18 12:57:34;;;;;;;5.78;4.85;;;;;;;18.03;38.75;95692.75;5001299;28;20054;-81
2023/10/18 13:00:15;;;;;;;6.57;5.20;;;;;;;17.91;39.25;95695.56;5005122;28;20055;-81
2023/10/18 13:03:23;;;;;;;5.72;4.57;;;;;;;17.77;39.46;95693.56;4999050;28;20062;-81
2023/10/18 13:05:53;;;;;;;4.85;4.35;;;;;;;17.62;39.36;95679.19;4984348;28;20078;-81
2023/10/18 13:08:34;;;;;;;5.40;4.90;;;;;;;17.48;39.66;95677.97;4984280;28;20105;-81
2023/10/18 13:17:23;;;;;;;5.03;4.53;;;;;;;17.10;41.06;95655.94;5004152;28;20093;-81
2023/10/18 13:19:53;;;;;;;7.50;4.50;;;;;;;16.98;41.05;95655.28;5005934;28;20544;-81
2023/10/18 13:22:31;;;;;;;5.93;4.70;;;;;;;16.88;41.80;95643.56;5005890;28;20058;-81
2023/10/18 13:25:07;;;;;;;5.25;4.75;;;;;;;16.84;41.66;95639.84;4998522;28;20062;-81
2023/10/18 13:27:37;;;;;;;4.78;4.38;;;;;;;16.77;42.14;95644.47;4995711;28;20054;-81
2023/10/18 13:30:31;;;;;;;7.10;4.82;;;;;;;16.68;42.10;95643.25;4996669;28;20141;-81
2023/10/18 13:33:01;;;;;;;4.65;4.03;;;;;;;16.59;42.76;95648.16;4996664;28;20058;-80
2023/10/18 13:35:29;;;;;;;4.80;4.40;;;;;;;16.52;42.69;95644.13;4996135;28;20046;-80
2023/10/18 13:37:59;;;;;;;5.68;4.60;;;;;;;16.44;42.96;95648.75;4996365;28;20047;-80
2023/10/18 13:40:29;;;;;;;5.32;4.25;;;;;;;16.37;43.05;95642.84;4998543;28;20050;-81